Time,TemperatureF,DewpointF,PressureIn,WindDirection,WindDirectionDegrees,WindSpeedMPH,WindSpeedGustMPH,Humidity,HourlyPrecipIn,Conditions,Clouds,dailyrainin,SoftwareType,DateUTC
2013-03-02 00:01:00,33.8,29.8,30.31,West,262,0.0,0.0,85,0.00,CLR,SKC,0.00,WeatherDisplay:10.37,2013-03-02 07:01:00,
2013-03-02 00:06:00,33.5,29.8,30.31,West,262,0.0,0.0,86,0.00,CLR,SKC,0.00,WeatherDisplay:10.37,2013-03-02 07:06:00,
2013-03-02 00:12:00,33.3,29.6,30.31,West,262,0.0,0.0,86,0.00,CLR,SKC,0.00,WeatherDisplay:10.37,2013-03-02 07:12:00,
2013-03-02 00:17:00,33.4,29.9,30.30,West,262,0.0,0.0,87,0.00,CLR,SKC,0.00,WeatherDisplay:10.37,2013-03-02 07:17:00,
2013-03-02 00:22:00,33.3,29.8,30.30,West,262,1.1,0.0,87,0.00,CLR,SKC,0.00,WeatherDisplay:10.37,2013-03-02 07:22:00,
2013-03-02 00:27:00,32.9,29.2,30.30,West,262,1.0,1.0,86,0.00,CLR,SKC,0.00,WeatherDisplay:10.37,2013-03-02 07:27:00,
2013-03-02 00:32:00,32.8,29.4,30.31,West,262,0.0,0.0,87,0.00,CLR,SKC,0.00,WeatherDisplay:10.37,2013-03-02 07:32:00,
2013-03-02 00:37:00,32.6,29.4,30.30,West,262,1.1,1.1,88,0.00,CLR,SKC,0.00,WeatherDisplay:10.37,2013-03-02 07:37:00,
2013-03-02 00:42:00,32.6,29.4,30.30,West,262,1.1,1.1,88,0.00,CLR,SKC,0.00,WeatherDisplay:10.37,2013-03-02 07:42:00,
2013-03-02 00:47:00,32.6,29.4,30.30,West,262,1.1,1.1,88,0.00,CLR,SKC,0.00,WeatherDisplay:10.37,2013-03-02 07:47:00,
2013-03-02 00:52:00,32.6,29.7,30.30,West,262,0.0,0.0,89,0.00,CLR,SKC,0.00,WeatherDisplay:10.37,2013-03-02 07:52:00,
2013-03-02 00:57:00,32.5,29.3,30.30,West,262,0.0,0.0,88,0.00,CLR,SKC,0.00,WeatherDisplay:10.37,2013-03-02 07:57:00,
2013-03-02 01:02:00,32.2,29.0,30.30,West,262,0.0,0.0,88,0.00,CLR,SKC,0.00,WeatherDisplay:10.37,2013-03-02 08:02:00,
2013-03-02 01:07:00,32.4,29.8,30.30,West,262,1.1,0.0,90,0.00,CLR,SKC,0.00,WeatherDisplay:10.37,2013-03-02 08:07:00,
2013-03-02 01:12:00,32.3,29.4,30.30,West,262,1.1,1.1,89,0.00,CLR,SKC,0.00,WeatherDisplay:10.37,2013-03-02 08:12:00,
2013-03-02 01:17:00,32.1,29.2,30.30,West,262,0.0,0.0,89,0.00,CLR,SKC,0.00,WeatherDisplay:10.37,2013-03-02 08:17:00,
2013-03-02 01:23:00,32.0,29.4,30.30,West,262,1.1,0.0,90,0.00,CLR,SKC,0.00,WeatherDisplay:10.37,2013-03-02 08:23:00,
2013-03-02 01:28:00,32.2,29.6,30.30,West,262,1.1,1.1,90,0.00,CLR,SKC,0.00,WeatherDisplay:10.37,2013-03-02 08:28:00,
2013-03-02 01:33:00,32.1,29.2,30.30,West,262,0.0,0.2,89,0.00,CLR,SKC,0.00,WeatherDisplay:10.37,2013-03-02 08:33:00,
2013-03-02 01:38:00,32.0,29.1,30.30,West,262,0.0,0.0,89,0.00,CLR,SKC,0.00,WeatherDisplay:10.37,2013-03-02 08:38:00,
2013-03-02 01:43:00,31.7,28.8,30.31,West,262,0.0,0.0,89,0.00,CLR,SKC,0.00,WeatherDisplay:10.37,2013-03-02 08:43:00,
2013-03-02 01:48:00,31.7,29.1,30.31,West,262,0.0,0.0,90,0.00,CLR,SKC,0.00,WeatherDisplay:10.37,2013-03-02 08:48:00,
2013-03-02 01:53:00,31.6,29.0,30.30,West,262,2.3,0.0,90,0.00,CLR,SKC,0.00,WeatherDisplay:10.37,2013-03-02 08:53:00,
2013-03-02 01:58:00,31.5,28.9,30.31,West,262,0.0,0.0,90,0.00,CLR,SKC,0.00,WeatherDisplay:10.37,2013-03-02 08:58:00,
2013-03-02 02:03:00,31.5,28.9,30.31,West,262,0.0,0.0,90,0.00,CLR,SKC,0.00,WeatherDisplay:10.37,2013-03-02 09:03:00,
2013-03-02 02:08:00,31.7,29.4,30.31,West,262,0.0,0.0,91,0.00,CLR,SKC,0.00,WeatherDisplay:10.37,2013-03-02 09:08:00,
2013-03-02 02:13:00,31.6,29.0,30.31,West,262,0.0,0.0,90,0.00,CLR,SKC,0.00,WeatherDisplay:10.37,2013-03-02 09:13:00,
2013-03-02 02:18:00,31.4,29.1,30.31,West,262,0.0,0.0,91,0.00,CLR,SKC,0.00,WeatherDisplay:10.37,2013-03-02 09:18:00,
2013-03-02 02:23:00,31.5,29.2,30.31,West,262,1.1,0.0,91,0.00,CLR,SKC,0.00,WeatherDisplay:10.37,2013-03-02 09:23:00,
2013-03-02 02:28:00,31.5,29.2,30.31,West,262,0.0,0.0,91,0.00,CLR,SKC,0.00,WeatherDisplay:10.37,2013-03-02 09:28:00,
2013-03-02 02:33:00,31.3,29.0,30.30,West,262,1.1,0.0,91,0.00,CLR,SKC,0.00,WeatherDisplay:10.37,2013-03-02 09:33:00,
2013-03-02 02:38:00,31.1,28.5,30.30,West,262,0.0,0.0,90,0.00,CLR,SKC,0.00,WeatherDisplay:10.37,2013-03-02 09:38:00,
2013-03-02 02:43:00,31.0,28.7,30.30,West,262,1.1,0.0,91,0.00,CLR,SKC,0.00,WeatherDisplay:10.37,2013-03-02 09:43:00,
2013-03-02 02:48:00,30.9,28.6,30.30,West,262,0.0,0.0,91,0.00,CLR,SKC,0.00,WeatherDisplay:10.37,2013-03-02 09:48:00,
2013-03-02 02:53:00,30.7,28.4,30.30,West,262,0.0,1.0,91,0.00,CLR,SKC,0.00,WeatherDisplay:10.37,2013-03-02 09:53:00,
2013-03-02 02:58:00,30.9,28.9,30.29,West,262,0.0,1.0,92,0.00,CLR,SKC,0.00,WeatherDisplay:10.37,2013-03-02 09:58:00,
2013-03-02 03:03:00,31.0,28.9,30.29,West,262,0.0,0.0,92,0.00,CLR,SKC,0.00,WeatherDisplay:10.37,2013-03-02 10:03:00,
2013-03-02 03:08:00,31.0,28.9,30.29,West,271,0.0,2.0,92,0.00,CLR,SKC,0.00,WeatherDisplay:10.37,2013-03-02 10:08:00,
2013-03-02 03:14:00,31.1,29.0,30.28,WNW,283,1.1,0.0,92,0.00,CLR,SKC,0.00,WeatherDisplay:10.37,2013-03-02 10:14:00,
2013-03-02 03:19:00,31.1,29.0,30.28,WNW,283,1.1,1.1,92,0.00,CLR,SKC,0.00,WeatherDisplay:10.37,2013-03-02 10:19:00,
2013-03-02 03:25:00,31.1,28.8,30.28,West,267,3.5,3.5,91,0.00,CLR,SKC,0.00,WeatherDisplay:10.37,2013-03-02 10:25:00,
2013-03-02 03:30:00,31.1,29.0,30.28,West,267,0.0,0.0,92,0.00,CLR,SKC,0.00,WeatherDisplay:10.37,2013-03-02 10:30:00,
2013-03-02 03:35:00,31.0,28.7,30.28,West,267,1.0,0.0,91,0.00,CLR,SKC,0.00,WeatherDisplay:10.37,2013-03-02 10:35:00,
2013-03-02 03:41:00,31.1,29.0,30.28,SW,232,3.5,3.5,92,0.00,CLR,SKC,0.00,WeatherDisplay:10.37,2013-03-02 10:41:00,
2013-03-02 03:46:00,31.1,29.0,30.28,SW,232,0.0,0.0,92,0.00,CLR,SKC,0.00,WeatherDisplay:10.37,2013-03-02 10:46:00,
2013-03-02 03:51:00,31.0,28.9,30.28,SW,232,1.1,0.0,92,0.00,CLR,SKC,0.00,WeatherDisplay:10.37,2013-03-02 10:51:00,
2013-03-02 03:56:00,31.1,29.0,30.27,SW,232,1.0,0.0,92,0.00,CLR,SKC,0.00,WeatherDisplay:10.37,2013-03-02 10:56:00,
2013-03-02 04:01:00,31.3,29.2,30.27,WNW,286,0.0,0.0,92,0.00,CLR,SKC,0.00,WeatherDisplay:10.37,2013-03-02 11:01:00,
2013-03-02 04:06:00,31.2,29.1,30.27,WNW,289,2.3,2.3,92,0.00,CLR,SKC,0.00,WeatherDisplay:10.37,2013-03-02 11:06:00,
2013-03-02 04:12:00,31.1,28.8,30.27,WNW,289,0.0,0.2,91,0.00,CLR,SKC,0.00,WeatherDisplay:10.37,2013-03-02 11:12:00,
2013-03-02 04:18:00,30.9,28.6,30.28,WNW,289,0.0,2.0,91,0.00,CLR,SKC,0.00,WeatherDisplay:10.37,2013-03-02 11:18:00,
2013-03-02 04:23:00,30.9,28.9,30.27,NNE,26,0.0,0.0,92,0.00,CLR,SKC,0.00,WeatherDisplay:10.37,2013-03-02 11:23:00,
2013-03-02 04:28:00,30.7,28.7,30.27,West,269,1.1,1.1,92,0.00,CLR,SKC,0.00,WeatherDisplay:10.37,2013-03-02 11:28:00,
2013-03-02 04:33:00,30.7,28.7,30.27,West,269,1.1,1.1,92,0.00,CLR,SKC,0.00,WeatherDisplay:10.37,2013-03-02 11:33:00,
2013-03-02 04:38:00,30.7,28.7,30.28,West,269,0.0,0.0,92,0.00,CLR,SKC,0.00,WeatherDisplay:10.37,2013-03-02 11:38:00,
2013-03-02 04:43:00,30.6,28.6,30.28,SW,234,1.1,0.0,92,0.00,CLR,SKC,0.00,WeatherDisplay:10.37,2013-03-02 11:43:00,
2013-03-02 04:48:00,30.7,28.7,30.28,WSW,240,0.0,0.0,92,0.00,CLR,SKC,0.00,WeatherDisplay:10.37,2013-03-02 11:48:00,
2013-03-02 04:53:00,30.7,28.7,30.28,WSW,240,0.0,0.0,92,0.00,CLR,SKC,0.00,WeatherDisplay:10.37,2013-03-02 11:53:00,
2013-03-02 04:58:00,30.6,28.6,30.28,WNW,293,1.1,1.1,92,0.00,CLR,SKC,0.00,WeatherDisplay:10.37,2013-03-02 11:58:00,
2013-03-02 05:03:00,30.5,28.5,30.28,WNW,293,1.1,0.0,92,0.00,CLR,SKC,0.00,WeatherDisplay:10.37,2013-03-02 12:03:00,
2013-03-02 05:08:00,30.3,28.3,30.28,WNW,293,0.0,0.0,92,0.00,CLR,SKC,0.00,WeatherDisplay:10.37,2013-03-02 12:08:00,
2013-03-02 05:14:00,30.2,28.2,30.28,WNW,293,0.0,2.0,92,0.00,CLR,SKC,0.00,WeatherDisplay:10.37,2013-03-02 12:14:00,
2013-03-02 05:19:00,30.2,28.4,30.28,WNW,293,0.0,0.0,93,0.00,CLR,SKC,0.00,WeatherDisplay:10.37,2013-03-02 12:19:00,
2013-03-02 05:24:00,30.1,28.1,30.28,WNW,293,0.0,0.0,92,0.00,CLR,SKC,0.00,WeatherDisplay:10.37,2013-03-02 12:24:00,
2013-03-02 05:29:00,30.0,28.0,30.28,WNW,293,0.0,0.0,92,0.00,CLR,SKC,0.00,WeatherDisplay:10.37,2013-03-02 12:29:00,
2013-03-02 05:34:00,29.8,27.8,30.28,WNW,293,0.0,0.0,92,0.00,CLR,SKC,0.00,WeatherDisplay:10.37,2013-03-02 12:34:00,
2013-03-02 05:39:00,29.7,27.7,30.28,WNW,293,1.1,1.1,92,0.00,CLR,SKC,0.00,WeatherDisplay:10.37,2013-03-02 12:39:00,
2013-03-02 05:44:00,29.7,27.9,30.28,WNW,293,0.0,0.0,93,0.00,CLR,SKC,0.00,WeatherDisplay:10.37,2013-03-02 12:44:00,
2013-03-02 05:49:00,29.7,27.9,30.28,WNW,293,1.1,0.0,93,0.00,CLR,SKC,0.00,WeatherDisplay:10.37,2013-03-02 12:49:00,
2013-03-02 05:55:00,29.6,27.8,30.28,WNW,293,0.0,0.0,93,0.00,CLR,SKC,0.00,WeatherDisplay:10.37,2013-03-02 12:55:00,
2013-03-02 06:00:00,29.5,27.7,30.28,WNW,293,0.0,0.0,93,0.00,CLR,SKC,0.00,WeatherDisplay:10.37,2013-03-02 13:00:00,
2013-03-02 06:05:00,29.4,27.6,30.27,WNW,293,0.0,0.0,93,0.00,CLR,SKC,0.00,WeatherDisplay:10.37,2013-03-02 13:05:00,
2013-03-02 06:10:00,29.6,27.8,30.28,WNW,293,1.1,1.1,93,0.00,CLR,SKC,0.00,WeatherDisplay:10.37,2013-03-02 13:10:00,
2013-03-02 06:16:00,29.6,27.8,30.28,WNW,293,0.0,0.0,93,0.00,CLR,SKC,0.00,WeatherDisplay:10.37,2013-03-02 13:16:00,
2013-03-02 06:21:00,29.6,27.8,30.28,WNW,293,0.0,0.0,93,0.00,CLR,SKC,0.00,WeatherDisplay:10.37,2013-03-02 13:21:00,
2013-03-02 06:26:00,29.6,27.8,30.28,WNW,293,0.0,0.0,93,0.00,CLR,SKC,0.00,WeatherDisplay:10.37,2013-03-02 13:26:00,
2013-03-02 06:32:00,29.5,27.7,30.28,WNW,293,0.0,0.0,93,0.00,CLR,SKC,0.00,WeatherDisplay:10.37,2013-03-02 13:32:00,
2013-03-02 06:37:00,29.6,28.1,30.28,WNW,293,0.0,0.0,94,0.00,CLR,SKC,0.00,WeatherDisplay:10.37,2013-03-02 13:37:00,
2013-03-02 06:42:00,29.7,28.2,30.28,WNW,293,0.0,0.0,94,0.00,CLR,SKC,0.00,WeatherDisplay:10.37,2013-03-02 13:42:00,
2013-03-02 06:47:00,29.8,28.3,30.28,WNW,293,0.0,0.0,94,0.00,CLR,SKC,0.00,WeatherDisplay:10.37,2013-03-02 13:47:00,
2013-03-02 06:52:00,29.9,28.4,30.27,WNW,293,0.0,0.0,94,0.00,CLR,SKC,0.00,WeatherDisplay:10.37,2013-03-02 13:52:00,
2013-03-02 06:58:00,30.2,28.7,30.27,WNW,293,0.0,0.0,94,0.00,CLR,SKC,0.00,WeatherDisplay:10.37,2013-03-02 13:58:00,
2013-03-02 07:03:00,30.1,28.6,30.27,WNW,293,0.0,0.0,94,0.00,CLR,SKC,0.00,WeatherDisplay:10.37,2013-03-02 14:03:00,
2013-03-02 07:08:00,29.9,28.1,30.27,WNW,293,0.0,0.0,93,0.00,CLR,SKC,0.00,WeatherDisplay:10.37,2013-03-02 14:08:00,
2013-03-02 07:13:00,29.9,28.1,30.27,WNW,293,0.0,0.0,93,0.00,CLR,SKC,0.00,WeatherDisplay:10.37,2013-03-02 14:13:00,
2013-03-02 07:18:00,29.8,28.0,30.27,WNW,293,1.0,0.0,93,0.00,CLR,SKC,0.00,WeatherDisplay:10.37,2013-03-02 14:18:00,
2013-03-02 07:23:00,29.6,27.8,30.27,WNW,293,0.0,0.0,93,0.00,CLR,SKC,0.00,WeatherDisplay:10.37,2013-03-02 14:23:00,
2013-03-02 07:28:00,29.6,28.1,30.27,WNW,293,0.0,0.0,94,0.00,CLR,SKC,0.00,WeatherDisplay:10.37,2013-03-02 14:28:00,
2013-03-02 07:33:00,29.6,28.1,30.26,WNW,293,0.0,0.0,94,0.00,CLR,SKC,0.00,WeatherDisplay:10.37,2013-03-02 14:33:00,
2013-03-02 07:38:00,29.6,28.1,30.26,WNW,293,1.1,0.0,94,0.00,CLR,SKC,0.00,WeatherDisplay:10.37,2013-03-02 14:38:00,
2013-03-02 07:43:00,29.7,28.2,30.26,WNW,293,0.0,0.0,94,0.00,CLR,SKC,0.00,WeatherDisplay:10.37,2013-03-02 14:43:00,
2013-03-02 07:48:00,29.7,28.2,30.26,WNW,293,0.0,0.0,94,0.00,CLR,SKC,0.00,WeatherDisplay:10.37,2013-03-02 14:48:00,
2013-03-02 07:53:00,29.7,28.2,30.26,WNW,293,1.0,0.0,94,0.00,CLR,SKC,0.00,WeatherDisplay:10.37,2013-03-02 14:53:00,
2013-03-02 07:58:00,29.8,28.3,30.26,WNW,293,0.0,1.0,94,0.00,CLR,SKC,0.00,WeatherDisplay:10.37,2013-03-02 14:58:00,
2013-03-02 08:03:00,29.9,28.4,30.25,WNW,293,0.0,0.0,94,0.00,CLR,SKC,0.00,WeatherDisplay:10.37,2013-03-02 15:03:00,
2013-03-02 08:08:00,30.0,28.5,30.25,WNW,293,0.0,1.0,94,0.00,CLR,SKC,0.00,WeatherDisplay:10.37,2013-03-02 15:08:00,
2013-03-02 08:14:00,30.3,28.8,30.25,WNW,293,0.0,0.0,94,0.00,CLR,SKC,0.00,WeatherDisplay:10.37,2013-03-02 15:14:00,
2013-03-02 08:19:00,30.5,29.0,30.25,WNW,293,0.0,0.0,94,0.00,CLR,SKC,0.00,WeatherDisplay:10.37,2013-03-02 15:19:00,
2013-03-02 08:24:00,30.8,29.3,30.25,WNW,293,0.0,0.0,94,0.00,CLR,SKC,0.00,WeatherDisplay:10.37,2013-03-02 15:24:00,
2013-03-02 08:30:00,31.3,30.0,30.24,WNW,293,1.1,1.1,95,0.00,CLR,SKC,0.00,WeatherDisplay:10.37,2013-03-02 15:30:00,
2013-03-02 08:35:00,31.6,30.3,30.24,WNW,293,0.0,0.0,95,0.00,CLR,SKC,0.00,WeatherDisplay:10.37,2013-03-02 15:35:00,
2013-03-02 08:40:00,32.0,30.5,30.24,WNW,293,0.0,0.0,94,0.00,CLR,SKC,0.00,WeatherDisplay:10.37,2013-03-02 15:40:00,
2013-03-02 08:45:00,32.6,31.3,30.24,WNW,293,0.0,0.0,95,0.00,CLR,SKC,0.00,WeatherDisplay:10.37,2013-03-02 15:45:00,
2013-03-02 08:50:00,33.2,31.9,30.23,WNW,293,0.0,0.0,95,0.00,CLR,SKC,0.00,WeatherDisplay:10.37,2013-03-02 15:50:00,
2013-03-02 08:55:00,33.7,32.2,30.24,WNW,293,1.1,1.1,94,0.00,CLR,SKC,0.00,WeatherDisplay:10.37,2013-03-02 15:55:00,
2013-03-02 09:00:00,34.4,32.6,30.23,NNE,18,1.1,0.0,93,0.00,CLR,SKC,0.00,WeatherDisplay:10.37,2013-03-02 16:00:00,
2013-03-02 09:05:00,35.0,32.9,30.23,NNE,18,0.0,0.0,92,0.00,CLR,SKC,0.00,WeatherDisplay:10.37,2013-03-02 16:05:00,
2013-03-02 09:10:00,35.5,33.1,30.23,NNE,18,0.0,0.0,91,0.00,CLR,SKC,0.00,WeatherDisplay:10.37,2013-03-02 16:10:00,
2013-03-02 09:15:00,35.9,32.7,30.23,NNE,18,0.0,0.0,88,0.00,CLR,SKC,0.00,WeatherDisplay:10.37,2013-03-02 16:15:00,
2013-03-02 09:20:00,36.6,32.5,30.22,NNE,18,1.1,0.0,85,0.00,CLR,SKC,0.00,WeatherDisplay:10.37,2013-03-02 16:20:00,
2013-03-02 09:25:00,37.1,32.7,30.22,NNE,18,0.0,0.0,84,0.00,CLR,SKC,0.00,WeatherDisplay:10.37,2013-03-02 16:25:00,
2013-03-02 09:30:00,37.7,33.3,30.22,NNE,18,0.0,0.0,84,0.00,CLR,SKC,0.00,WeatherDisplay:10.37,2013-03-02 16:30:00,
2013-03-02 09:35:00,38.0,32.4,30.22,NNE,18,0.0,0.0,80,0.00,CLR,SKC,0.00,WeatherDisplay:10.37,2013-03-02 16:35:00,
2013-03-02 09:40:00,38.2,32.3,30.22,NNE,20,2.3,2.3,79,0.00,CLR,SKC,0.00,WeatherDisplay:10.37,2013-03-02 16:40:00,
2013-03-02 09:46:00,38.5,32.2,30.21,NNE,20,0.0,0.0,78,0.00,CLR,SKC,0.00,WeatherDisplay:10.37,2013-03-02 16:46:00,
2013-03-02 09:51:00,38.8,32.2,30.22,NNE,20,0.0,0.0,77,0.00,CLR,SKC,0.00,WeatherDisplay:10.37,2013-03-02 16:51:00,
2013-03-02 09:57:00,39.1,32.2,30.21,NNE,20,1.1,1.1,76,0.00,CLR,SKC,0.00,WeatherDisplay:10.37,2013-03-02 16:57:00,
2013-03-02 10:02:00,39.3,32.4,30.21,NNE,20,2.3,2.3,76,0.00,CLR,SKC,0.00,WeatherDisplay:10.37,2013-03-02 17:02:00,
2013-03-02 10:07:00,39.6,32.7,30.21,NNE,20,1.1,1.1,76,0.00,CLR,SKC,0.00,WeatherDisplay:10.37,2013-03-02 17:07:00,
2013-03-02 10:12:00,40.0,32.7,30.21,NNE,20,0.0,0.2,75,0.00,CLR,SKC,0.00,WeatherDisplay:10.37,2013-03-02 17:12:00,
2013-03-02 10:17:00,40.4,32.4,30.20,NNE,20,1.1,0.0,73,0.00,CLR,SKC,0.00,WeatherDisplay:10.37,2013-03-02 17:17:00,
2013-03-02 10:23:00,40.8,33.2,30.20,NNE,20,0.0,0.0,74,0.00,CLR,SKC,0.00,WeatherDisplay:10.37,2013-03-02 17:23:00,
2013-03-02 10:28:00,41.3,33.0,30.20,NNE,20,0.0,0.0,72,0.00,CLR,SKC,0.00,WeatherDisplay:10.37,2013-03-02 17:28:00,
2013-03-02 10:33:00,41.6,32.9,30.19,NNE,20,1.1,1.1,71,0.00,CLR,SKC,0.00,WeatherDisplay:10.37,2013-03-02 17:33:00,
2013-03-02 10:38:00,41.9,33.2,30.19,NNE,20,1.1,1.1,71,0.00,CLR,SKC,0.00,WeatherDisplay:10.37,2013-03-02 17:38:00,
2013-03-02 10:43:00,42.2,33.1,30.18,NNE,24,0.0,0.0,70,0.00,CLR,SKC,0.00,WeatherDisplay:10.37,2013-03-02 17:43:00,
2013-03-02 10:49:00,42.4,33.3,30.18,NNE,24,0.0,1.0,70,0.00,CLR,SKC,0.00,WeatherDisplay:10.37,2013-03-02 17:49:00,
2013-03-02 10:54:00,42.5,33.0,30.18,NNE,24,1.1,0.0,69,0.00,CLR,SKC,0.00,WeatherDisplay:10.37,2013-03-02 17:54:00,
2013-03-02 10:59:00,42.6,33.9,30.18,NNE,24,0.0,0.0,71,0.00,CLR,SKC,0.00,WeatherDisplay:10.37,2013-03-02 17:59:00,
2013-03-02 11:04:00,42.8,32.6,30.17,NE,36,1.1,1.1,67,0.00,CLR,SKC,0.00,WeatherDisplay:10.37,2013-03-02 18:04:00,
2013-03-02 11:09:00,43.0,33.2,30.17,NE,36,1.1,0.0,68,0.00,CLR,SKC,0.00,WeatherDisplay:10.37,2013-03-02 18:09:00,
2013-03-02 11:14:00,43.4,33.2,30.17,NE,36,0.0,0.0,67,0.00,CLR,SKC,0.00,WeatherDisplay:10.37,2013-03-02 18:14:00,
2013-03-02 11:19:00,43.9,33.6,30.17,NE,46,1.1,1.1,67,0.00,CLR,SKC,0.00,WeatherDisplay:10.37,2013-03-02 18:19:00,
2013-03-02 11:25:00,44.7,33.3,30.17,NE,41,2.3,2.3,64,0.00,CLR,SKC,0.00,WeatherDisplay:10.37,2013-03-02 18:25:00,
2013-03-02 11:30:00,45.1,33.6,30.16,ESE,109,2.3,2.3,64,0.00,CLR,SKC,0.00,WeatherDisplay:10.37,2013-03-02 18:30:00,
2013-03-02 11:35:00,45.6,34.1,30.16,NE,56,2.0,2.0,64,0.00,CLR,SKC,0.00,WeatherDisplay:10.37,2013-03-02 18:35:00,
2013-03-02 11:41:00,46.1,34.2,30.15,NE,47,2.3,2.3,63,0.00,CLR,SKC,0.00,WeatherDisplay:10.37,2013-03-02 18:41:00,
2013-03-02 11:46:00,46.5,33.8,30.15,NE,36,1.1,1.1,61,0.00,CLR,SKC,0.00,WeatherDisplay:10.37,2013-03-02 18:46:00,
2013-03-02 11:51:00,46.8,34.5,30.15,NE,36,0.0,0.0,62,0.00,CLR,SKC,0.00,WeatherDisplay:10.37,2013-03-02 18:51:00,
2013-03-02 11:57:00,47.1,33.9,30.15,NE,36,2.3,2.3,60,0.00,CLR,SKC,0.00,WeatherDisplay:10.37,2013-03-02 18:57:00,
2013-03-02 12:02:00,47.2,34.0,30.15,NE,42,1.1,0.0,60,0.00,CLR,SKC,0.00,WeatherDisplay:10.37,2013-03-02 19:02:00,
2013-03-02 12:07:00,47.5,34.3,30.14,NE,42,1.1,1.1,60,0.00,CLR,SKC,0.00,WeatherDisplay:10.37,2013-03-02 19:07:00,
2013-03-02 12:12:00,47.8,34.2,30.14,NE,42,1.1,1.1,59,0.00,CLR,SKC,0.00,WeatherDisplay:10.37,2013-03-02 19:12:00,
2013-03-02 12:17:00,48.0,33.9,30.14,NE,42,1.1,0.0,58,0.00,CLR,SKC,0.00,WeatherDisplay:10.37,2013-03-02 19:17:00,
2013-03-02 12:22:00,48.3,34.2,30.14,NE,42,1.1,1.1,58,0.00,CLR,SKC,0.00,WeatherDisplay:10.37,2013-03-02 19:22:00,
2013-03-02 12:28:00,48.9,34.3,30.13,NE,42,1.1,1.1,57,0.00,CLR,SKC,0.00,WeatherDisplay:10.37,2013-03-02 19:28:00,
2013-03-02 12:33:00,49.5,34.4,30.13,NE,43,1.1,1.1,56,0.00,CLR,SKC,0.00,WeatherDisplay:10.37,2013-03-02 19:33:00,
2013-03-02 12:38:00,49.7,34.2,30.12,NE,49,0.0,2.0,55,0.00,CLR,SKC,0.00,WeatherDisplay:10.37,2013-03-02 19:38:00,
2013-03-02 12:43:00,49.9,34.4,30.12,NNE,23,0.0,3.0,55,0.00,CLR,SKC,0.00,WeatherDisplay:10.37,2013-03-02 19:43:00,
2013-03-02 12:48:00,50.3,34.7,30.12,North,359,0.0,2.0,55,0.00,CLR,SKC,0.00,WeatherDisplay:10.37,2013-03-02 19:48:00,
2013-03-02 12:54:00,50.9,34.4,30.11,NW,325,2.3,2.3,53,0.00,CLR,SKC,0.00,WeatherDisplay:10.37,2013-03-02 19:54:00,
2013-03-02 12:59:00,50.8,34.7,30.11,SSW,194,0.0,0.0,54,0.00,CLR,SKC,0.00,WeatherDisplay:10.37,2013-03-02 19:59:00,
2013-03-02 13:04:00,51.0,34.0,30.10,NNE,32,3.0,3.0,52,0.00,CLR,SKC,0.00,WeatherDisplay:10.37,2013-03-02 20:04:00,
2013-03-02 13:09:00,51.0,34.0,30.10,NNE,31,0.0,0.0,52,0.00,CLR,SKC,0.00,WeatherDisplay:10.37,2013-03-02 20:09:00,
2013-03-02 13:14:00,51.2,34.6,30.09,NE,45,1.1,1.1,53,0.00,CLR,SKC,0.00,WeatherDisplay:10.37,2013-03-02 20:14:00,
2013-03-02 13:19:00,51.4,34.8,30.09,NE,36,2.0,2.0,53,0.00,CLR,SKC,0.00,WeatherDisplay:10.37,2013-03-02 20:19:00,
2013-03-02 13:24:00,51.5,35.4,30.09,NE,35,1.1,1.1,54,0.00,CLR,SKC,0.00,WeatherDisplay:10.37,2013-03-02 20:24:00,
2013-03-02 13:29:00,51.7,35.1,30.08,NE,36,2.3,2.3,53,0.00,CLR,SKC,0.00,WeatherDisplay:10.37,2013-03-02 20:29:00,
2013-03-02 13:34:00,51.7,34.6,30.08,NE,36,2.3,2.3,52,0.00,CLR,SKC,0.00,WeatherDisplay:10.37,2013-03-02 20:34:00,
2013-03-02 13:38:00,51.8,35.2,30.08,NE,36,1.1,1.1,53,0.00,CLR,SKC,0.00,WeatherDisplay:10.37,2013-03-02 20:38:00,
2013-03-02 13:43:00,51.8,34.7,30.07,NE,36,1.1,1.1,52,0.00,CLR,SKC,0.00,WeatherDisplay:10.37,2013-03-02 20:43:00,
2013-03-02 13:48:00,51.8,35.2,30.07,NE,36,0.0,0.0,53,0.00,CLR,SKC,0.00,WeatherDisplay:10.37,2013-03-02 20:48:00,
2013-03-02 13:53:00,52.0,34.9,30.06,NE,36,2.3,2.3,52,0.00,CLR,SKC,0.00,WeatherDisplay:10.37,2013-03-02 20:53:00,
2013-03-02 13:59:00,52.4,35.8,30.06,NE,36,1.1,1.1,53,0.00,CLR,SKC,0.00,WeatherDisplay:10.37,2013-03-02 20:59:00,
2013-03-02 14:04:00,52.9,35.7,30.06,NE,36,1.1,1.1,52,0.00,CLR,SKC,0.00,WeatherDisplay:10.37,2013-03-02 21:04:00,
2013-03-02 14:10:00,53.3,35.6,30.05,NE,36,1.0,0.0,51,0.00,CLR,SKC,0.00,WeatherDisplay:10.37,2013-03-02 21:10:00,
2013-03-02 14:15:00,53.5,35.3,30.05,NE,36,1.1,1.1,50,0.00,CLR,SKC,0.00,WeatherDisplay:10.37,2013-03-02 21:15:00,
2013-03-02 14:20:00,53.5,34.8,30.05,NE,36,1.1,1.1,49,0.00,CLR,SKC,0.00,WeatherDisplay:10.37,2013-03-02 21:20:00,
2013-03-02 14:25:00,53.6,34.9,30.05,NE,36,1.1,1.1,49,0.00,CLR,SKC,0.00,WeatherDisplay:10.37,2013-03-02 21:25:00,
2013-03-02 14:30:00,53.7,35.0,30.05,NNE,18,1.1,1.1,49,0.00,CLR,SKC,0.00,WeatherDisplay:10.37,2013-03-02 21:30:00,
2013-03-02 14:36:00,54.1,35.3,30.05,NNE,18,1.1,1.1,49,0.00,CLR,SKC,0.00,WeatherDisplay:10.37,2013-03-02 21:36:00,
2013-03-02 14:41:00,54.1,34.8,30.04,NE,40,2.3,2.3,48,0.00,CLR,SKC,0.00,WeatherDisplay:10.37,2013-03-02 21:41:00,
2013-03-02 14:47:00,54.0,34.7,30.04,NE,40,1.1,1.1,48,0.00,CLR,SKC,0.00,WeatherDisplay:10.37,2013-03-02 21:47:00,
2013-03-02 14:52:00,54.0,34.2,30.03,NE,40,1.1,1.1,47,0.00,CLR,SKC,0.00,WeatherDisplay:10.37,2013-03-02 21:52:00,
2013-03-02 14:57:00,54.0,34.7,30.03,NE,40,0.0,0.0,48,0.00,CLR,SKC,0.00,WeatherDisplay:10.37,2013-03-02 21:57:00,
2013-03-02 15:02:00,54.2,34.9,30.03,NE,40,1.1,1.1,48,0.00,CLR,SKC,0.00,WeatherDisplay:10.37,2013-03-02 22:02:00,
2013-03-02 15:07:00,54.4,35.1,30.02,NE,53,2.0,2.0,48,0.00,CLR,SKC,0.00,WeatherDisplay:10.37,2013-03-02 22:07:00,
2013-03-02 15:12:00,54.4,35.1,30.02,ENE,63,0.0,0.0,48,0.00,CLR,SKC,0.00,WeatherDisplay:10.37,2013-03-02 22:12:00,
2013-03-02 15:17:00,54.4,35.1,30.02,ENE,63,0.0,0.0,48,0.00,CLR,SKC,0.00,WeatherDisplay:10.37,2013-03-02 22:17:00,
2013-03-02 15:22:00,54.4,34.6,30.01,ENE,63,1.1,1.1,47,0.00,CLR,SKC,0.00,WeatherDisplay:10.37,2013-03-02 22:22:00,
2013-03-02 15:27:00,54.4,34.0,30.01,ENE,63,0.0,0.0,46,0.00,CLR,SKC,0.00,WeatherDisplay:10.37,2013-03-02 22:27:00,
2013-03-02 15:33:00,54.4,35.1,30.00,ENE,63,1.1,0.0,48,0.00,CLR,SKC,0.00,WeatherDisplay:10.37,2013-03-02 22:33:00,
2013-03-02 15:38:00,54.4,34.0,30.00,ENE,63,0.0,0.0,46,0.00,CLR,SKC,0.00,WeatherDisplay:10.37,2013-03-02 22:38:00,
2013-03-02 15:43:00,54.4,34.6,30.00,ENE,63,0.0,0.0,47,0.00,CLR,SKC,0.00,WeatherDisplay:10.37,2013-03-02 22:43:00,
2013-03-02 15:48:00,54.3,34.5,29.99,ENE,63,1.1,1.1,47,0.00,CLR,SKC,0.00,WeatherDisplay:10.37,2013-03-02 22:48:00,
2013-03-02 15:54:00,54.2,33.9,29.99,ENE,63,0.0,0.0,46,0.00,CLR,SKC,0.00,WeatherDisplay:10.37,2013-03-02 22:54:00,
2013-03-02 15:59:00,54.2,34.9,29.99,ENE,63,0.0,0.0,48,0.00,CLR,SKC,0.00,WeatherDisplay:10.37,2013-03-02 22:59:00,
2013-03-02 16:04:00,54.3,33.9,29.99,ENE,63,0.0,0.0,46,0.00,CLR,SKC,0.00,WeatherDisplay:10.37,2013-03-02 23:04:00,
2013-03-02 16:10:00,54.2,34.4,29.99,ENE,63,0.0,1.0,47,0.00,CLR,SKC,0.00,WeatherDisplay:10.37,2013-03-02 23:10:00,
2013-03-02 16:15:00,54.2,34.4,29.99,ENE,63,0.0,0.0,47,0.00,CLR,SKC,0.00,WeatherDisplay:10.37,2013-03-02 23:15:00,
2013-03-02 16:20:00,54.1,34.3,29.98,ENE,63,1.1,1.1,47,0.00,CLR,SKC,0.00,WeatherDisplay:10.37,2013-03-02 23:20:00,
2013-03-02 16:25:00,54.0,34.2,29.98,ENE,63,0.0,0.0,47,0.00,CLR,SKC,0.00,WeatherDisplay:10.37,2013-03-02 23:25:00,
2013-03-02 16:30:00,53.9,34.1,29.98,ENE,63,1.1,0.0,47,0.00,CLR,SKC,0.00,WeatherDisplay:10.37,2013-03-02 23:30:00,
2013-03-02 16:35:00,53.9,35.7,29.98,ENE,63,0.0,0.0,50,0.00,CLR,SKC,0.00,WeatherDisplay:10.37,2013-03-02 23:35:00,
2013-03-02 16:40:00,53.8,34.6,29.98,ENE,63,0.0,0.0,48,0.00,CLR,SKC,0.00,WeatherDisplay:10.37,2013-03-02 23:40:00,
2013-03-02 16:45:00,53.7,34.5,29.98,ENE,63,0.0,0.0,48,0.00,CLR,SKC,0.00,WeatherDisplay:10.37,2013-03-02 23:45:00,
2013-03-02 16:50:00,53.6,35.4,29.98,ENE,63,0.0,0.0,50,0.00,CLR,SKC,0.00,WeatherDisplay:10.37,2013-03-02 23:50:00,
2013-03-02 16:55:00,53.5,34.8,29.97,ENE,63,0.0,0.0,49,0.00,CLR,SKC,0.00,WeatherDisplay:10.37,2013-03-02 23:55:00,
2013-03-02 17:00:00,53.3,35.1,29.97,ENE,63,0.0,0.0,50,0.00,CLR,SKC,0.00,WeatherDisplay:10.37,2013-03-03 00:00:00,
2013-03-02 17:05:00,53.2,34.5,29.97,ENE,63,0.0,0.0,49,0.00,CLR,SKC,0.00,WeatherDisplay:10.37,2013-03-03 00:05:00,
2013-03-02 17:10:00,53.1,34.4,29.97,ENE,63,0.0,0.0,49,0.00,CLR,SKC,0.00,WeatherDisplay:10.37,2013-03-03 00:10:00,
2013-03-02 17:15:00,52.9,34.8,29.96,ENE,63,0.0,0.0,50,0.00,CLR,SKC,0.00,WeatherDisplay:10.37,2013-03-03 00:15:00,
2013-03-02 17:20:00,52.8,35.2,29.96,ENE,63,0.0,0.0,51,0.00,CLR,SKC,0.00,WeatherDisplay:10.37,2013-03-03 00:20:00,
2013-03-02 17:25:00,52.6,35.5,29.96,ENE,63,0.0,0.0,52,0.00,CLR,SKC,0.00,WeatherDisplay:10.37,2013-03-03 00:25:00,
2013-03-02 17:30:00,52.3,35.2,29.96,ENE,63,0.0,0.0,52,0.00,CLR,SKC,0.00,WeatherDisplay:10.37,2013-03-03 00:30:00,
2013-03-02 17:35:00,52.1,35.5,29.96,ENE,63,0.0,0.0,53,0.00,CLR,SKC,0.00,WeatherDisplay:10.37,2013-03-03 00:35:00,
2013-03-02 17:40:00,51.7,34.6,29.96,ENE,63,0.0,0.0,52,0.00,CLR,SKC,0.00,WeatherDisplay:10.37,2013-03-03 00:40:00,
2013-03-02 17:46:00,51.5,34.4,29.95,ENE,63,0.0,0.0,52,0.00,CLR,SKC,0.00,WeatherDisplay:10.37,2013-03-03 00:46:00,
2013-03-02 17:51:00,51.3,34.3,29.95,ENE,63,0.0,0.0,52,0.00,CLR,SKC,0.00,WeatherDisplay:10.37,2013-03-03 00:51:00,
2013-03-02 17:56:00,50.9,35.7,29.95,ENE,63,1.1,0.0,56,0.00,CLR,SKC,0.00,WeatherDisplay:10.37,2013-03-03 00:56:00,
2013-03-02 18:01:00,50.3,35.6,29.94,ENE,63,0.0,0.0,57,0.00,CLR,SKC,0.00,WeatherDisplay:10.37,2013-03-03 01:01:00,
2013-03-02 18:06:00,49.8,35.6,29.94,ENE,63,1.1,0.0,58,0.00,CLR,SKC,0.00,WeatherDisplay:10.37,2013-03-03 01:06:00,
2013-03-02 18:11:00,49.3,36.4,29.94,ENE,63,0.0,0.0,61,0.00,CLR,SKC,0.00,WeatherDisplay:10.37,2013-03-03 01:11:00,
2013-03-02 18:16:00,49.0,36.5,29.94,ENE,63,0.0,0.0,62,0.00,CLR,SKC,0.00,WeatherDisplay:10.37,2013-03-03 01:16:00,
2013-03-02 18:21:00,48.6,36.2,29.94,ENE,63,0.0,0.0,62,0.00,CLR,SKC,0.00,WeatherDisplay:10.37,2013-03-03 01:21:00,
2013-03-02 18:26:00,48.3,36.3,29.94,ENE,63,0.0,0.0,63,0.00,CLR,SKC,0.00,WeatherDisplay:10.37,2013-03-03 01:26:00,
2013-03-02 18:31:00,47.8,36.2,29.94,ENE,63,0.0,0.0,64,0.00,CLR,SKC,0.00,WeatherDisplay:10.37,2013-03-03 01:31:00,
2013-03-02 18:35:00,47.3,35.7,29.94,ENE,63,0.0,0.0,64,0.00,CLR,SKC,0.00,WeatherDisplay:10.37,2013-03-03 01:35:00,
2013-03-02 18:40:00,47.2,35.2,29.93,ENE,63,0.0,0.0,63,0.00,CLR,SKC,0.00,WeatherDisplay:10.37,2013-03-03 01:40:00,
2013-03-02 18:45:00,47.0,35.4,29.94,ENE,63,0.0,0.0,64,0.00,CLR,SKC,0.00,WeatherDisplay:10.37,2013-03-03 01:45:00,
2013-03-02 18:50:00,46.7,35.6,29.93,ENE,63,0.0,0.0,65,0.00,CLR,SKC,0.00,WeatherDisplay:10.37,2013-03-03 01:50:00,
2013-03-02 18:55:00,46.3,35.2,29.93,ENE,63,0.0,0.0,65,0.00,CLR,SKC,0.00,WeatherDisplay:10.37,2013-03-03 01:55:00,
2013-03-02 19:00:00,46.1,35.0,29.93,ENE,63,0.0,0.0,65,0.00,CLR,SKC,0.00,WeatherDisplay:10.37,2013-03-03 02:00:00,
2013-03-02 19:05:00,45.8,35.5,29.93,ENE,63,0.0,0.0,67,0.00,CLR,SKC,0.00,WeatherDisplay:10.37,2013-03-03 02:05:00,
2013-03-02 19:11:00,45.5,35.2,29.93,ENE,63,0.0,0.0,67,0.00,CLR,SKC,0.00,WeatherDisplay:10.37,2013-03-03 02:11:00,
2013-03-02 19:16:00,45.3,34.2,29.93,ENE,63,0.0,0.0,65,0.00,CLR,SKC,0.00,WeatherDisplay:10.37,2013-03-03 02:16:00,
2013-03-02 19:21:00,45.0,34.3,29.93,ENE,63,0.0,0.0,66,0.00,CLR,SKC,0.00,WeatherDisplay:10.37,2013-03-03 02:21:00,
2013-03-02 19:26:00,45.0,34.7,29.93,ENE,63,1.1,1.1,67,0.00,CLR,SKC,0.00,WeatherDisplay:10.37,2013-03-03 02:26:00,
2013-03-02 19:31:00,44.9,33.8,29.93,ENE,63,0.0,0.0,65,0.00,CLR,SKC,0.00,WeatherDisplay:10.37,2013-03-03 02:31:00,
2013-03-02 19:36:00,45.1,33.6,29.93,ENE,63,0.0,0.0,64,0.00,CLR,SKC,0.00,WeatherDisplay:10.37,2013-03-03 02:36:00,
2013-03-02 19:42:00,45.2,34.5,29.93,ENE,63,0.0,0.3,66,0.00,CLR,SKC,0.00,WeatherDisplay:10.37,2013-03-03 02:42:00,
2013-03-02 19:47:00,45.2,33.7,29.93,ENE,63,1.1,0.0,64,0.00,CLR,SKC,0.00,WeatherDisplay:10.37,2013-03-03 02:47:00,
2013-03-02 19:52:00,45.4,33.5,29.93,ENE,63,1.0,1.0,63,0.00,CLR,SKC,0.00,WeatherDisplay:10.37,2013-03-03 02:52:00,
2013-03-02 19:57:00,45.5,33.2,29.93,ENE,63,0.0,0.0,62,0.00,CLR,SKC,0.00,WeatherDisplay:10.37,2013-03-03 02:57:00,
2013-03-02 20:02:00,45.7,33.8,29.92,ENE,63,0.0,0.0,63,0.00,CLR,SKC,0.00,WeatherDisplay:10.37,2013-03-03 03:02:00,
2013-03-02 20:07:00,45.9,34.0,29.92,ENE,63,0.0,0.0,63,0.00,CLR,SKC,0.00,WeatherDisplay:10.37,2013-03-03 03:07:00,
2013-03-02 20:12:00,46.5,33.8,29.92,NE,46,1.1,0.0,61,0.00,CLR,SKC,0.00,WeatherDisplay:10.37,2013-03-03 03:12:00,
2013-03-02 20:17:00,46.8,34.0,29.92,NE,49,1.1,1.8,61,0.00,CLR,SKC,0.00,WeatherDisplay:10.37,2013-03-03 03:17:00,
2013-03-02 20:22:00,47.3,35.7,29.92,NNE,21,3.5,3.5,64,0.00,CLR,SKC,0.00,WeatherDisplay:10.37,2013-03-03 03:22:00,
2013-03-02 20:27:00,47.9,36.3,29.91,North,355,1.1,1.1,64,0.00,CLR,SKC,0.00,WeatherDisplay:10.37,2013-03-03 03:27:00,
2013-03-02 20:32:00,47.9,35.9,29.91,North,355,0.0,0.0,63,0.00,CLR,SKC,0.00,WeatherDisplay:10.37,2013-03-03 03:32:00,
2013-03-02 20:37:00,47.9,35.5,29.91,East,81,0.0,0.0,62,0.00,CLR,SKC,0.00,WeatherDisplay:10.37,2013-03-03 03:37:00,
2013-03-02 20:42:00,48.0,35.6,29.91,East,101,3.5,3.5,62,0.00,CLR,SKC,0.00,WeatherDisplay:10.37,2013-03-03 03:42:00,
2013-03-02 20:47:00,48.2,36.2,29.91,NE,53,3.5,3.5,63,0.00,CLR,SKC,0.00,WeatherDisplay:10.37,2013-03-03 03:47:00,
2013-03-02 20:52:00,48.8,35.1,29.91,NE,37,1.1,0.0,59,0.00,CLR,SKC,0.00,WeatherDisplay:10.37,2013-03-03 03:52:00,
2013-03-02 20:58:00,49.1,35.8,29.91,ENE,67,0.0,0.1,60,0.00,CLR,SKC,0.00,WeatherDisplay:10.37,2013-03-03 03:58:00,
2013-03-02 21:03:00,48.8,35.5,29.91,ENE,69,0.0,0.1,60,0.00,CLR,SKC,0.00,WeatherDisplay:10.37,2013-03-03 04:03:00,
2013-03-02 21:08:00,48.5,36.1,29.91,ENE,69,0.0,0.0,62,0.00,CLR,SKC,0.00,WeatherDisplay:10.37,2013-03-03 04:08:00,
2013-03-02 21:14:00,48.0,36.8,29.91,ENE,69,1.1,1.1,65,0.00,CLR,SKC,0.00,WeatherDisplay:10.37,2013-03-03 04:14:00,
2013-03-02 21:19:00,47.4,37.4,29.91,ENE,69,0.0,0.0,68,0.00,CLR,SKC,0.00,WeatherDisplay:10.37,2013-03-03 04:19:00,
2013-03-02 21:24:00,46.8,37.9,29.91,ENE,69,0.0,0.0,71,0.00,CLR,SKC,0.00,WeatherDisplay:10.37,2013-03-03 04:24:00,
2013-03-02 21:29:00,46.2,38.4,29.91,ENE,69,0.0,0.0,74,0.00,CLR,SKC,0.00,WeatherDisplay:10.37,2013-03-03 04:29:00,
2013-03-02 21:35:00,45.4,39.3,29.91,ENE,69,0.0,0.0,79,0.00,CLR,SKC,0.00,WeatherDisplay:10.37,2013-03-03 04:35:00,
2013-03-02 21:40:00,44.8,39.6,29.91,ENE,69,1.1,1.1,82,0.00,CLR,SKC,0.00,WeatherDisplay:10.37,2013-03-03 04:40:00,
2013-03-02 21:45:00,44.2,39.7,29.91,ENE,69,0.0,0.0,84,0.00,CLR,SKC,0.00,WeatherDisplay:10.37,2013-03-03 04:45:00,
2013-03-02 21:50:00,43.8,39.6,29.91,ENE,69,0.0,0.0,85,0.00,CLR,SKC,0.00,WeatherDisplay:10.37,2013-03-03 04:50:00,
2013-03-02 21:55:00,43.5,39.9,29.91,ENE,69,0.0,0.0,87,0.00,CLR,SKC,0.00,WeatherDisplay:10.37,2013-03-03 04:55:00,
2013-03-02 22:00:00,43.2,39.9,29.90,ENE,69,0.0,0.0,88,0.00,CLR,SKC,0.00,WeatherDisplay:10.37,2013-03-03 05:00:00,
2013-03-02 22:02:00,43.0,39.4,29.90,ENE,69,0.0,0.1,87,0.00,CLR,SKC,0.00,WeatherDisplay:10.37,2013-03-03 05:02:00,
2013-03-02 22:03:00,43.0,39.4,29.90,ENE,69,1.1,1.1,87,0.00,CLR,SKC,0.00,WeatherDisplay:10.37,2013-03-03 05:03:00,
2013-03-02 22:08:00,42.8,39.5,29.91,ENE,69,1.1,0.0,88,0.00,CLR,SKC,0.00,WeatherDisplay:10.37,2013-03-03 05:08:00,
2013-03-02 22:13:00,42.6,39.3,29.90,ENE,69,0.0,0.0,88,0.01,RA,SKC,0.01,WeatherDisplay:10.37,2013-03-03 05:13:00,
2013-03-02 22:18:00,42.4,39.4,29.90,ENE,69,0.0,0.0,89,0.01,RA,SKC,0.01,WeatherDisplay:10.37,2013-03-03 05:18:00,
2013-03-02 22:23:00,42.2,39.5,29.90,ENE,69,0.0,0.0,90,0.01,,SKC,0.01,WeatherDisplay:10.37,2013-03-03 05:23:00,
2013-03-02 22:28:00,42.1,39.4,29.90,ENE,69,0.0,0.0,90,0.01,CLR,SKC,0.01,WeatherDisplay:10.37,2013-03-03 05:28:00,
2013-03-02 22:33:00,42.0,39.3,29.90,ENE,69,0.0,0.0,90,0.01,CLR,SKC,0.01,WeatherDisplay:10.37,2013-03-03 05:33:00,
2013-03-02 22:38:00,41.9,39.2,29.90,ENE,69,0.0,0.0,90,0.01,CLR,SKC,0.01,WeatherDisplay:10.37,2013-03-03 05:38:00,
2013-03-02 22:43:00,41.8,39.4,29.90,ENE,69,0.0,0.0,91,0.01,CLR,SKC,0.01,WeatherDisplay:10.37,2013-03-03 05:43:00,
2013-03-02 22:48:00,41.6,39.2,29.90,ENE,69,0.0,0.0,91,0.01,CLR,SKC,0.01,WeatherDisplay:10.37,2013-03-03 05:48:00,
2013-03-02 22:53:00,41.5,39.1,29.90,ENE,69,0.0,0.0,91,0.01,CLR,SKC,0.01,WeatherDisplay:10.37,2013-03-03 05:53:00,
2013-03-02 22:59:00,41.4,39.3,29.90,ENE,69,0.0,0.0,92,0.01,CLR,SKC,0.01,WeatherDisplay:10.37,2013-03-03 05:59:00,
2013-03-02 23:04:00,41.3,39.2,29.90,ENE,69,0.0,0.0,92,0.01,CLR,SKC,0.01,WeatherDisplay:10.37,2013-03-03 06:04:00,
2013-03-02 23:09:00,41.2,39.1,29.90,ENE,69,0.0,0.0,92,0.01,CLR,SKC,0.01,WeatherDisplay:10.37,2013-03-03 06:09:00,
2013-03-02 23:14:00,41.1,39.0,29.90,ENE,69,0.0,0.0,92,0.00,CLR,SKC,0.01,WeatherDisplay:10.37,2013-03-03 06:14:00,
2013-03-02 23:19:00,41.0,38.9,29.90,ENE,69,0.0,0.0,92,0.00,CLR,SKC,0.01,WeatherDisplay:10.37,2013-03-03 06:19:00,
2013-03-02 23:23:00,40.9,39.0,29.90,ENE,69,0.0,0.0,93,0.01,RA,SKC,0.02,WeatherDisplay:10.37,2013-03-03 06:23:00,
2013-03-02 23:28:00,40.9,39.0,29.90,ENE,69,1.1,0.0,93,0.01,RA,SKC,0.02,WeatherDisplay:10.37,2013-03-03 06:28:00,
2013-03-02 23:33:00,40.8,38.9,29.89,ENE,69,0.0,0.0,93,0.01,CLR,SKC,0.02,WeatherDisplay:10.37,2013-03-03 06:33:00,
2013-03-02 23:38:00,40.7,38.8,29.89,ENE,69,0.0,0.0,93,0.01,CLR,SKC,0.02,WeatherDisplay:10.37,2013-03-03 06:38:00,
2013-03-02 23:43:00,40.7,38.8,29.89,ENE,69,1.1,1.1,93,0.01,CLR,SKC,0.02,WeatherDisplay:10.37,2013-03-03 06:43:00,
2013-03-02 23:48:00,40.7,38.8,29.89,ENE,69,1.1,1.1,93,0.01,CLR,SKC,0.02,WeatherDisplay:10.37,2013-03-03 06:48:00,
2013-03-02 23:54:00,40.7,38.8,29.88,ENE,69,0.0,2.0,93,0.00,RA,SKC,0.02,WeatherDisplay:10.37,2013-03-03 06:54:00,
2013-03-02 23:59:00,40.8,39.2,29.88,ENE,69,0.0,2.0,94,0.00,CLR,SKC,0.00,WeatherDisplay:10.37,2013-03-03 06:59:00,